createdAt,value
2018-12-15T00:00:06.918Z,102354.57
2018-12-15T00:03:31.675Z,102359.48
2018-12-15T00:06:56.379Z,102358.97
2018-12-15T00:10:21.151Z,102366.04
2018-12-15T00:13:45.863Z,102368.29
2018-12-15T00:17:10.620Z,102364.72
2018-12-15T00:20:35.355Z,102365.55
2018-12-15T00:24:00.118Z,102371.26
2018-12-15T00:27:24.825Z,102364.36
2018-12-15T00:30:49.653Z,102365.64
2018-12-15T00:34:14.378Z,102368.83
2018-12-15T00:37:39.173Z,102362.55
2018-12-15T00:41:04.179Z,102373.75
2018-12-15T00:44:28.918Z,102380.89
2018-12-15T00:47:53.568Z,102380.35
2018-12-15T00:51:18.643Z,102382.25
2018-12-15T00:54:43.359Z,102381.31
2018-12-15T00:58:08.033Z,102373.27
2018-12-15T01:01:32.729Z,102383.98
2018-12-15T01:04:57.406Z,102384.38
2018-12-15T01:08:22.077Z,102388.67
2018-12-15T01:11:46.780Z,102389.31
2018-12-15T01:15:11.431Z,102401.78
2018-12-15T01:18:36.085Z,102407.98
2018-12-15T01:22:00.727Z,102409.78
2018-12-15T01:25:25.404Z,102418.08
2018-12-15T01:28:50.055Z,102424.28
2018-12-15T01:32:14.839Z,102432.92
2018-12-15T01:35:39.644Z,102438.66
2018-12-15T01:39:06.695Z,102438.84
2018-12-15T01:42:31.378Z,102438.96
2018-12-15T01:45:56.209Z,102428.80
2018-12-15T01:49:21.029Z,102429.30
2018-12-15T01:52:45.752Z,102435.02
2018-12-15T01:56:10.415Z,102438.69
2018-12-15T01:59:35.121Z,102437.83
2018-12-15T02:02:59.856Z,102434.27
2018-12-15T02:06:24.544Z,102440.02
2018-12-15T02:09:49.180Z,102430.13
2018-12-15T02:13:13.894Z,102436.02
2018-12-15T02:16:38.616Z,102441.60
2018-12-15T02:20:03.726Z,102437.91
2018-12-15T02:23:28.482Z,102433.92
2018-12-15T02:26:53.329Z,102433.37
2018-12-15T02:30:18.000Z,102430.69
2018-12-15T02:33:42.746Z,102429.30
2018-12-15T02:37:07.461Z,102432.54
2018-12-15T02:40:32.199Z,102423.29
2018-12-15T02:43:57.039Z,102420.17
2018-12-15T02:47:21.770Z,102423.72
2018-12-15T02:50:46.555Z,102423.70
2018-12-15T02:54:11.216Z,102418.80
2018-12-15T02:57:35.921Z,102415.84
2018-12-15T03:01:00.755Z,102413.00
2018-12-15T03:04:25.518Z,102406.94
2018-12-15T03:11:54.835Z,102400.43
2018-12-15T03:15:19.470Z,102391.06
2018-12-15T03:18:44.116Z,102380.17
2018-12-15T03:22:08.769Z,102387.16
2018-12-15T03:25:33.431Z,102389.05
2018-12-15T03:28:58.093Z,102385.95
2018-12-15T03:32:22.813Z,102379.72
2018-12-15T03:35:47.470Z,102380.60
2018-12-15T03:39:12.139Z,102378.30
2018-12-15T03:42:36.843Z,102375.81
2018-12-15T03:46:01.570Z,102381.83
2018-12-15T03:49:26.256Z,102373.47
2018-12-15T03:52:50.942Z,102375.84
2018-12-15T03:56:15.604Z,102382.28
2018-12-15T03:59:40.463Z,102382.39
2018-12-15T04:03:05.191Z,102380.15
2018-12-15T04:06:29.932Z,102377.08
2018-12-15T04:09:54.604Z,102378.33
2018-12-15T04:13:19.294Z,102376.34
2018-12-15T04:16:44.024Z,102369.61
2018-12-15T04:20:08.730Z,102375.74
2018-12-15T04:23:33.410Z,102375.84
2018-12-15T04:26:58.084Z,102370.94
2018-12-15T04:30:22.719Z,102370.81
2018-12-15T04:33:47.367Z,102366.39
2018-12-15T04:37:11.996Z,102376.81
2018-12-15T04:40:36.907Z,102378.23
2018-12-15T04:44:01.790Z,102372.57
2018-12-15T04:47:26.668Z,102376.56
2018-12-15T04:50:51.354Z,102369.59
2018-12-15T04:54:16.017Z,102371.72
2018-12-15T04:57:40.758Z,102373.20
2018-12-15T05:01:05.476Z,102370.48
2018-12-15T05:04:30.278Z,102375.82
2018-12-15T05:07:55.025Z,102373.27
2018-12-15T05:11:19.737Z,102370.79
2018-12-15T05:14:44.483Z,102371.24
2018-12-15T05:18:09.240Z,102375.23
2018-12-15T05:21:33.914Z,102381.79
2018-12-15T05:24:58.896Z,102378.72
2018-12-15T05:28:23.706Z,102376.39
2018-12-15T05:31:48.413Z,102379.05
2018-12-15T05:35:13.120Z,102382.41
2018-12-15T05:38:37.798Z,102376.41
2018-12-15T05:42:02.520Z,102375.91
2018-12-15T05:45:27.196Z,102369.86
2018-12-15T05:48:51.846Z,102375.13
2018-12-15T05:52:16.557Z,102376.39
2018-12-15T05:55:41.259Z,102382.32
2018-12-15T05:59:05.997Z,102378.70
2018-12-15T06:02:31.054Z,102371.78
2018-12-15T06:05:55.669Z,102381.06
2018-12-15T06:09:20.379Z,102373.80
2018-12-15T06:12:45.088Z,102374.25
2018-12-15T06:16:09.767Z,102380.34
2018-12-15T06:19:34.466Z,102380.80
2018-12-15T06:22:59.133Z,102388.52
2018-12-15T06:26:23.868Z,102390.61
2018-12-15T06:29:48.522Z,102387.25
2018-12-15T06:33:13.411Z,102388.72
2018-12-15T06:36:38.876Z,102394.61
2018-12-15T06:40:03.730Z,102397.90
2018-12-15T06:43:28.992Z,102389.16
2018-12-15T06:46:53.724Z,102390.16
2018-12-15T06:50:18.435Z,102381.41
2018-12-15T06:53:43.083Z,102390.07
2018-12-15T06:57:08.020Z,102380.69
2018-12-15T07:00:32.877Z,102372.03
2018-12-15T07:03:57.531Z,102376.91
2018-12-15T07:07:22.526Z,102370.96
2018-12-15T07:10:47.284Z,102365.09
2018-12-15T07:14:12.060Z,102368.58
2018-12-15T07:17:37.417Z,102365.95
2018-12-15T07:21:02.322Z,102364.38
2018-12-15T07:24:26.986Z,102367.25
2018-12-15T07:27:51.708Z,102368.92
2018-12-15T07:31:16.611Z,102373.84
2018-12-15T07:34:41.292Z,102367.59
2018-12-15T07:38:06.035Z,102372.59
2018-12-15T07:41:30.851Z,102370.77
2018-12-15T07:44:55.543Z,102379.64
2018-12-15T07:48:24.792Z,102374.05
2018-12-15T07:51:49.572Z,102374.22
2018-12-15T07:55:14.413Z,102371.33
2018-12-15T07:58:39.127Z,102383.70
2018-12-15T08:05:40.240Z,102391.38
2018-12-15T08:09:07.842Z,102391.98
2018-12-15T08:12:42.045Z,102386.75
2018-12-15T08:16:06.884Z,102390.61
2018-12-15T08:19:31.676Z,102386.58
2018-12-15T08:22:56.537Z,102388.62
2018-12-15T08:26:21.235Z,102395.45
2018-12-15T08:29:45.941Z,102396.63
2018-12-15T08:33:10.672Z,102392.47
2018-12-15T08:36:35.354Z,102395.44
2018-12-15T08:40:00.044Z,102394.56
2018-12-15T08:43:24.699Z,102399.77
2018-12-15T08:46:49.466Z,102399.87
2018-12-15T08:50:14.100Z,102401.25
2018-12-15T08:53:38.836Z,102406.91
2018-12-15T08:57:03.570Z,102405.66
2018-12-15T09:00:28.340Z,102406.98
2018-12-15T09:03:53.007Z,102405.82
2018-12-15T09:07:17.775Z,102412.32
2018-12-15T09:10:42.516Z,102413.13
2018-12-15T09:14:07.353Z,102409.96
2018-12-15T09:17:32.153Z,102414.70
2018-12-15T09:20:56.875Z,102413.77
2018-12-15T09:24:22.174Z,102415.56
2018-12-15T09:27:46.911Z,102411.55
2018-12-15T09:31:11.633Z,102405.91
2018-12-15T09:34:36.320Z,102405.73
2018-12-15T09:38:01.090Z,102408.53
2018-12-15T09:45:03.580Z,102406.16
2018-12-15T09:48:28.280Z,102413.94
2018-12-15T09:51:52.923Z,102398.94
2018-12-15T09:55:17.631Z,102394.27
2018-12-15T09:58:42.326Z,102387.38
2018-12-15T10:02:07.427Z,102385.05
2018-12-15T10:05:32.168Z,102381.61
2018-12-15T10:08:56.870Z,102383.45
2018-12-15T10:12:21.602Z,102381.61
2018-12-15T10:15:46.423Z,102370.16
2018-12-15T10:19:11.086Z,102364.72
2018-12-15T10:22:35.882Z,102360.66
2018-12-15T10:26:00.693Z,102356.22
2018-12-15T10:29:30.463Z,102348.47
2018-12-15T10:32:55.183Z,102341.52
2018-12-15T10:36:19.864Z,102334.73
2018-12-15T10:39:44.560Z,102322.39
2018-12-15T10:43:09.387Z,102323.59
2018-12-15T10:46:34.055Z,102330.43
2018-12-15T10:49:59.446Z,102323.47
2018-12-15T10:53:31.799Z,102326.20
2018-12-15T10:56:56.581Z,102320.41
2018-12-15T11:00:29.369Z,102319.45
2018-12-15T11:08:14.249Z,102322.74
2018-12-15T11:11:39.053Z,102310.83
2018-12-15T11:15:03.834Z,102295.03
2018-12-15T11:18:30.720Z,102291.50
2018-12-15T11:21:55.367Z,102285.02
2018-12-15T11:25:20.132Z,102280.39
2018-12-15T11:28:44.866Z,102278.45
2018-12-15T11:32:09.648Z,102276.34
2018-12-15T11:35:34.316Z,102255.84
2018-12-15T11:38:59.025Z,102248.93
2018-12-15T11:42:23.692Z,102238.08
2018-12-15T11:45:48.476Z,102234.77
2018-12-15T11:49:13.224Z,102224.27
2018-12-15T11:52:37.960Z,102216.59
2018-12-15T11:56:02.736Z,102210.97
2018-12-15T11:59:27.481Z,102213.23
2018-12-15T12:02:52.800Z,102213.32
2018-12-15T12:06:17.539Z,102201.20
2018-12-15T12:09:42.413Z,102200.80
2018-12-15T12:13:07.805Z,102191.98
2018-12-15T12:16:32.702Z,102196.25
2018-12-15T12:19:57.450Z,102199.67
2018-12-15T12:23:22.232Z,102194.47
2018-12-15T12:26:47.086Z,102190.56
2018-12-15T12:30:12.019Z,102176.75
2018-12-15T12:33:36.825Z,102177.91
2018-12-15T12:37:02.253Z,102166.33
2018-12-15T12:40:26.993Z,102174.52
2018-12-15T12:43:51.777Z,102167.11
2018-12-15T12:47:16.663Z,102184.30
2018-12-15T12:50:41.340Z,102181.80
2018-12-15T12:54:07.106Z,102175.41
2018-12-15T12:57:31.847Z,102178.34
2018-12-15T13:00:56.776Z,102177.02
2018-12-15T13:04:21.560Z,102166.85
2018-12-15T13:07:46.308Z,102168.87
2018-12-15T13:11:11.873Z,102168.06
2018-12-15T13:14:41.855Z,102163.62
2018-12-15T13:18:12.223Z,102156.22
2018-12-15T13:21:36.984Z,102148.00
2018-12-15T13:25:01.717Z,102148.67
2018-12-15T13:28:29.430Z,102144.76
2018-12-15T13:31:54.847Z,102150.36
2018-12-15T13:35:19.625Z,102146.88
2018-12-15T13:38:45.709Z,102138.06
2018-12-15T13:42:10.714Z,102125.76
2018-12-15T13:45:35.461Z,102121.83
2018-12-15T13:49:00.252Z,102115.73
2018-12-15T13:52:24.965Z,102106.89
2018-12-15T13:55:49.771Z,102103.84
2018-12-15T13:59:14.603Z,102102.86
2018-12-15T14:02:39.322Z,102100.94
2018-12-15T14:06:04.053Z,102087.44
2018-12-15T14:09:28.720Z,102086.27
2018-12-15T14:12:53.435Z,102085.16
2018-12-15T14:16:18.130Z,102085.91
2018-12-15T14:19:42.808Z,102079.08
2018-12-15T14:23:07.423Z,102070.20
2018-12-15T14:26:32.181Z,102069.97
2018-12-15T14:29:56.892Z,102067.50
2018-12-15T14:33:21.615Z,102053.45
2018-12-15T14:36:46.380Z,102038.06
2018-12-15T14:40:11.200Z,102035.70
2018-12-15T14:43:35.914Z,102029.85
2018-12-15T14:47:00.745Z,102037.00
2018-12-15T14:50:25.480Z,102022.86
2018-12-15T14:53:50.212Z,102009.53
2018-12-15T14:57:17.198Z,102001.08
2018-12-15T15:00:41.860Z,101998.47
2018-12-15T15:04:06.593Z,101994.19
2018-12-15T15:07:31.542Z,101971.60
2018-12-15T15:10:56.267Z,101964.51
2018-12-15T15:14:21.478Z,101972.44
2018-12-15T15:17:46.266Z,101959.17
2018-12-15T15:21:11.133Z,101951.45
2018-12-15T15:24:35.886Z,101968.42
2018-12-15T15:28:00.613Z,101964.31
2018-12-15T15:31:25.287Z,101953.20
2018-12-15T15:34:50.032Z,101946.98
2018-12-15T15:38:14.821Z,101941.06
2018-12-15T15:41:39.601Z,101952.25
2018-12-15T15:45:04.725Z,101950.05
2018-12-15T15:48:29.453Z,101938.73
2018-12-15T15:51:54.217Z,101929.95
2018-12-15T15:55:18.909Z,101917.56
2018-12-15T15:58:43.570Z,101923.73
2018-12-15T16:02:08.573Z,101906.59
2018-12-15T16:05:33.405Z,101902.02
2018-12-15T16:08:58.466Z,101902.72
2018-12-15T16:12:23.108Z,101902.50
2018-12-15T16:15:47.852Z,101900.91
2018-12-15T16:19:12.530Z,101906.48
2018-12-15T16:22:37.225Z,101908.01
2018-12-15T16:26:01.926Z,101895.88
2018-12-15T16:29:26.618Z,101895.20
2018-12-15T16:32:51.363Z,101900.06
2018-12-15T16:36:16.067Z,101892.41
2018-12-15T16:39:40.796Z,101895.45
2018-12-15T16:43:05.798Z,101884.72
2018-12-15T16:46:31.023Z,101880.08
2018-12-15T16:49:55.780Z,101865.92
2018-12-15T16:53:20.525Z,101861.00
2018-12-15T16:56:45.256Z,101872.09
2018-12-15T17:00:15.259Z,101859.59
2018-12-15T17:03:39.951Z,101857.37
2018-12-15T17:07:04.814Z,101870.16
2018-12-15T17:10:29.543Z,101857.66
2018-12-15T17:13:54.248Z,101850.07
2018-12-15T17:17:19.046Z,101834.08
2018-12-15T17:20:43.828Z,101833.66
2018-12-15T17:24:08.656Z,101835.18
2018-12-15T17:27:34.013Z,101828.23
2018-12-15T17:30:58.828Z,101819.09
2018-12-15T17:34:23.518Z,101804.45
2018-12-15T17:37:48.221Z,101794.74
2018-12-15T17:41:12.933Z,101786.20
2018-12-15T17:44:37.862Z,101778.27
2018-12-15T17:48:03.008Z,101768.45
2018-12-15T17:51:27.815Z,101759.52
2018-12-15T17:54:52.763Z,101743.95
2018-12-15T17:58:17.527Z,101739.23
2018-12-15T18:01:42.273Z,101733.65
2018-12-15T18:05:07.329Z,101725.42
2018-12-15T18:08:32.115Z,101723.98
2018-12-15T18:11:56.970Z,101712.19
2018-12-15T18:15:21.735Z,101699.50
2018-12-15T18:18:46.684Z,101694.44
2018-12-15T18:22:11.495Z,101683.94
2018-12-15T18:25:36.169Z,101674.91
2018-12-15T18:29:00.888Z,101658.48
2018-12-15T18:32:25.807Z,101658.20
2018-12-15T18:35:50.504Z,101648.92
2018-12-15T18:39:16.432Z,101645.42
2018-12-15T18:42:41.156Z,101642.65
2018-12-15T18:46:06.046Z,101648.18
2018-12-15T18:49:30.825Z,101651.95
2018-12-15T18:52:55.746Z,101648.12
2018-12-15T18:56:20.750Z,101651.28
2018-12-15T18:59:45.559Z,101636.94
2018-12-15T19:03:10.366Z,101633.29
2018-12-15T19:06:37.249Z,101612.18
2018-12-15T19:24:06.740Z,101610.13
2018-12-15T19:31:05.239Z,101600.67
2018-12-15T19:34:30.350Z,101591.25
2018-12-15T19:37:56.222Z,101591.34
2018-12-15T19:41:21.354Z,101579.58
2018-12-15T19:44:47.072Z,101570.94
2018-12-15T19:48:12.897Z,101560.62
2018-12-15T19:51:38.949Z,101560.46
2018-12-15T19:55:03.674Z,101549.22
2018-12-15T19:58:29.090Z,101556.84
2018-12-15T20:01:54.103Z,101542.94
2018-12-15T20:05:19.983Z,101539.75
2018-12-15T20:08:46.714Z,101546.20
2018-12-15T20:12:30.090Z,101524.40
2018-12-15T20:20:02.482Z,101503.77
2018-12-15T20:23:27.492Z,101506.09
2018-12-15T20:26:54.867Z,101509.59
2018-12-15T20:30:20.709Z,101504.08
2018-12-15T20:33:53.296Z,101501.98
2018-12-15T20:37:17.982Z,101481.53
2018-12-15T20:40:43.804Z,101469.03
2018-12-15T20:44:10.731Z,101462.14
2018-12-15T20:47:36.136Z,101462.80
2018-12-15T20:51:01.844Z,101457.16
2018-12-15T20:54:26.583Z,101459.57
2018-12-15T20:57:51.292Z,101454.86
2018-12-15T21:04:50.936Z,101434.79
2018-12-15T21:08:15.715Z,101433.98
2018-12-15T21:11:41.201Z,101429.44
2018-12-15T21:15:16.391Z,101411.30
2018-12-15T21:18:41.135Z,101424.48
2018-12-15T21:22:11.383Z,101403.64
2018-12-15T21:25:36.052Z,101395.27
2018-12-15T21:29:00.774Z,101389.80
2018-12-15T21:32:25.652Z,101383.80
2018-12-15T21:35:50.362Z,101373.73
2018-12-15T21:39:15.052Z,101357.48
2018-12-15T21:42:39.760Z,101353.58
2018-12-15T21:46:04.587Z,101340.94
2018-12-15T21:49:29.304Z,101332.82
2018-12-15T21:52:54.140Z,101329.81
2018-12-15T21:56:18.972Z,101312.97
2018-12-15T21:59:43.773Z,101314.22
2018-12-15T22:03:08.464Z,101295.40
2018-12-15T22:06:33.217Z,101279.03
2018-12-15T22:09:57.927Z,101282.06
2018-12-15T22:13:22.742Z,101273.80
2018-12-15T22:16:47.525Z,101250.71
2018-12-15T22:20:12.521Z,101244.44
2018-12-15T22:23:37.290Z,101232.93
2018-12-15T22:27:02.067Z,101223.27
2018-12-15T22:30:26.828Z,101227.46
2018-12-15T22:33:51.601Z,101215.29
2018-12-15T22:37:16.590Z,101208.96
2018-12-15T22:40:41.366Z,101222.52
2018-12-15T22:44:07.822Z,101211.89
2018-12-15T22:47:32.593Z,101209.73
2018-12-15T22:51:12.464Z,101194.59
2018-12-15T22:54:37.243Z,101183.20
2018-12-15T22:58:02.011Z,101192.06
2018-12-15T23:01:26.835Z,101194.27
2018-12-15T23:04:52.447Z,101174.77
2018-12-15T23:08:17.561Z,101181.56
2018-12-15T23:11:42.536Z,101175.87
2018-12-15T23:15:08.917Z,101178.20
2018-12-15T23:18:33.759Z,101176.98
2018-12-15T23:21:58.733Z,101187.70
2018-12-15T23:25:23.580Z,101194.16
2018-12-15T23:28:48.424Z,101202.80
2018-12-15T23:32:13.487Z,101204.58
2018-12-15T23:35:38.369Z,101208.93
2018-12-15T23:39:03.771Z,101210.94
2018-12-15T23:42:28.500Z,101213.36
2018-12-15T23:45:53.259Z,101222.83
2018-12-15T23:49:17.990Z,101220.62
2018-12-15T23:52:42.735Z,101228.73
2018-12-15T23:56:07.485Z,101224.80
2018-12-15T23:59:32.257Z,101212.55
